sensor_id;sensor_type;location;lat;lon;timestamp;pressure;altitude;pressure_sealevel;temperature;humidity
63715;BME280;49858;48.956;9.076;2023-02-20T00:00:43;99907.22;;;8.33;100.00
63715;BME280;49858;48.956;9.076;2023-02-20T00:03:14;99915.00;;;8.17;100.00
63715;BME280;49858;48.956;9.076;2023-02-20T00:05:42;99898.44;;;8.22;100.00
63715;BME280;49858;48.956;9.076;2023-02-20T00:08:10;99899.00;;;8.10;100.00
63715;BME280;49858;48.956;9.076;2023-02-20T00:10:38;99902.47;;;8.02;100.00
63715;BME280;49858;48.956;9.076;2023-02-20T00:13:06;99898.81;;;8.07;100.00
63715;BME280;49858;48.956;9.076;2023-02-20T00:15:35;99897.56;;;7.90;100.00
63715;BME280;49858;48.956;9.076;2023-02-20T00:18:03;99901.69;;;7.88;100.00
63715;BME280;49858;48.956;9.076;2023-02-20T00:20:33;99894.97;;;7.94;100.00
63715;BME280;49858;48.956;9.076;2023-02-20T00:23:03;99898.13;;;8.01;100.00
63715;BME280;49858;48.956;9.076;2023-02-20T00:25:31;99897.44;;;7.96;100.00
63715;BME280;49858;48.956;9.076;2023-02-20T00:27:58;99901.69;;;7.88;100.00
63715;BME280;49858;48.956;9.076;2023-02-20T00:30:26;99912.06;;;7.91;100.00
63715;BME280;49858;48.956;9.076;2023-02-20T00:32:55;99913.09;;;7.81;100.00
63715;BME280;49858;48.956;9.076;2023-02-20T00:35:24;99914.38;;;7.84;100.00
63715;BME280;49858;48.956;9.076;2023-02-20T00:37:54;99916.41;;;7.92;100.00
63715;BME280;49858;48.956;9.076;2023-02-20T00:40:24;99923.44;;;7.71;100.00
63715;BME280;49858;48.956;9.076;2023-02-20T00:42:51;99923.22;;;7.81;100.00
63715;BME280;49858;48.956;9.076;2023-02-20T00:45:20;99916.22;;;7.75;100.00
63715;BME280;49858;48.956;9.076;2023-02-20T00:47:48;99919.28;;;7.73;100.00
63715;BME280;49858;48.956;9.076;2023-02-20T00:50:16;99913.00;;;7.73;100.00
63715;BME280;49858;48.956;9.076;2023-02-20T00:52:45;99906.97;;;7.84;100.00
63715;BME280;49858;48.956;9.076;2023-02-20T00:55:14;99905.97;;;7.80;100.00
63715;BME280;49858;48.956;9.076;2023-02-20T00:57:44;99912.91;;;7.64;100.00
63715;BME280;49858;48.956;9.076;2023-02-20T01:00:17;99919.53;;;7.63;100.00
63715;BME280;49858;48.956;9.076;2023-02-20T01:02:45;99913.94;;;7.54;100.00
63715;BME280;49858;48.956;9.076;2023-02-20T01:05:13;99921.84;;;7.56;100.00
63715;BME280;49858;48.956;9.076;2023-02-20T01:07:41;99919.59;;;7.72;100.00
63715;BME280;49858;48.956;9.076;2023-02-20T01:10:09;99908.38;;;7.46;100.00
63715;BME280;49858;48.956;9.076;2023-02-20T01:12:39;99910.53;;;7.35;100.00
63715;BME280;49858;48.956;9.076;2023-02-20T01:15:09;99905.66;;;7.18;100.00
63715;BME280;49858;48.956;9.076;2023-02-20T01:17:38;99906.66;;;7.22;100.00
63715;BME280;49858;48.956;9.076;2023-02-20T01:20:07;99900.19;;;7.18;100.00
63715;BME280;49858;48.956;9.076;2023-02-20T01:22:34;99907.47;;;7.09;100.00
63715;BME280;49858;48.956;9.076;2023-02-20T01:25:03;99905.03;;;6.94;100.00
63715;BME280;49858;48.956;9.076;2023-02-20T01:27:31;99909.50;;;7.03;100.00
63715;BME280;49858;48.956;9.076;2023-02-20T01:30:00;99903.91;;;6.81;100.00
63715;BME280;49858;48.956;9.076;2023-02-20T01:32:28;99898.84;;;6.88;100.00
63715;BME280;49858;48.956;9.076;2023-02-20T01:34:56;99909.59;;;6.84;100.00
63715;BME280;49858;48.956;9.076;2023-02-20T01:37:23;99905.72;;;6.85;100.00
63715;BME280;49858;48.956;9.076;2023-02-20T01:39:51;99901.69;;;6.83;100.00
63715;BME280;49858;48.956;9.076;2023-02-20T01:42:22;99904.41;;;6.69;100.00
63715;BME280;49858;48.956;9.076;2023-02-20T01:44:53;99901.03;;;6.72;100.00
63715;BME280;49858;48.956;9.076;2023-02-20T01:47:23;99902.78;;;6.82;100.00
63715;BME280;49858;48.956;9.076;2023-02-20T01:49:53;99899.03;;;6.91;100.00
63715;BME280;49858;48.956;9.076;2023-02-20T01:52:24;99888.09;;;7.05;100.00
63715;BME280;49858;48.956;9.076;2023-02-20T01:54:56;99893.66;;;6.86;100.00
63715;BME280;49858;48.956;9.076;2023-02-20T01:57:28;99884.16;;;6.84;100.00
63715;BME280;49858;48.956;9.076;2023-02-20T02:00:01;99891.84;;;6.82;100.00
63715;BME280;49858;48.956;9.076;2023-02-20T02:02:47;99886.00;;;6.88;100.00
63715;BME280;49858;48.956;9.076;2023-02-20T02:05:17;99881.09;;;6.72;100.00
63715;BME280;49858;48.956;9.076;2023-02-20T02:07:45;99888.81;;;6.70;100.00
63715;BME280;49858;48.956;9.076;2023-02-20T02:10:16;99880.81;;;6.73;100.00
63715;BME280;49858;48.956;9.076;2023-02-20T02:12:46;99877.97;;;6.64;100.00
63715;BME280;49858;48.956;9.076;2023-02-20T02:15:18;99879.47;;;6.71;100.00
63715;BME280;49858;48.956;9.076;2023-02-20T02:18:06;99875.13;;;6.70;100.00
63715;BME280;49858;48.956;9.076;2023-02-20T02:21:11;99885.34;;;6.64;100.00
63715;BME280;49858;48.956;9.076;2023-02-20T02:27:21;99877.06;;;6.69;100.00
63715;BME280;49858;48.956;9.076;2023-02-20T02:30:14;99886.44;;;6.63;100.00
63715;BME280;49858;48.956;9.076;2023-02-20T02:33:06;99886.28;;;6.73;100.00
63715;BME280;49858;48.956;9.076;2023-02-20T02:36:09;99891.03;;;6.81;100.00
63715;BME280;49858;48.956;9.076;2023-02-20T02:38:46;99896.59;;;6.76;100.00
63715;BME280;49858;48.956;9.076;2023-02-20T02:41:21;99885.47;;;6.86;100.00
63715;BME280;49858;48.956;9.076;2023-02-20T02:43:58;99883.56;;;6.87;100.00
63715;BME280;49858;48.956;9.076;2023-02-20T02:46:29;99875.44;;;6.68;100.00
63715;BME280;49858;48.956;9.076;2023-02-20T02:49:06;99869.03;;;6.73;100.00
63715;BME280;49858;48.956;9.076;2023-02-20T02:51:39;99871.78;;;6.73;100.00
63715;BME280;49858;48.956;9.076;2023-02-20T02:54:13;99871.53;;;6.42;100.00
63715;BME280;49858;48.956;9.076;2023-02-20T02:56:43;99860.97;;;6.35;100.00
63715;BME280;49858;48.956;9.076;2023-02-20T02:59:14;99866.44;;;6.35;100.00
63715;BME280;49858;48.956;9.076;2023-02-20T03:01:46;99868.28;;;6.39;100.00
63715;BME280;49858;48.956;9.076;2023-02-20T03:04:18;99863.06;;;6.57;100.00
63715;BME280;49858;48.956;9.076;2023-02-20T03:06:52;99861.56;;;6.64;100.00
63715;BME280;49858;48.956;9.076;2023-02-20T03:09:24;99860.56;;;7.02;100.00
63715;BME280;49858;48.956;9.076;2023-02-20T03:11:54;99862.84;;;6.67;100.00
63715;BME280;49858;48.956;9.076;2023-02-20T03:14:27;99863.56;;;6.59;100.00
63715;BME280;49858;48.956;9.076;2023-02-20T03:17:22;99865.47;;;6.45;100.00
63715;BME280;49858;48.956;9.076;2023-02-20T03:19:57;99866.72;;;6.66;100.00
63715;BME280;49858;48.956;9.076;2023-02-20T03:22:31;99863.75;;;6.49;100.00
63715;BME280;49858;48.956;9.076;2023-02-20T03:25:03;99861.00;;;6.49;100.00
63715;BME280;49858;48.956;9.076;2023-02-20T03:27:37;99852.81;;;6.49;100.00
63715;BME280;49858;48.956;9.076;2023-02-20T03:30:14;99862.63;;;6.36;100.00
63715;BME280;49858;48.956;9.076;2023-02-20T03:32:46;99866.91;;;6.23;100.00
63715;BME280;49858;48.956;9.076;2023-02-20T03:35:37;99867.19;;;6.40;100.00
63715;BME280;49858;48.956;9.076;2023-02-20T03:38:25;99863.41;;;6.36;100.00
63715;BME280;49858;48.956;9.076;2023-02-20T03:41:13;99868.97;;;6.31;100.00
63715;BME280;49858;48.956;9.076;2023-02-20T03:44:03;99872.28;;;6.61;100.00
63715;BME280;49858;48.956;9.076;2023-02-20T03:46:36;99858.00;;;6.64;100.00
63715;BME280;49858;48.956;9.076;2023-02-20T03:49:07;99863.19;;;6.79;100.00
63715;BME280;49858;48.956;9.076;2023-02-20T03:51:55;99854.38;;;6.96;100.00
63715;BME280;49858;48.956;9.076;2023-02-20T03:54:36;99857.19;;;7.18;100.00
63715;BME280;49858;48.956;9.076;2023-02-20T03:57:08;99863.75;;;6.49;100.00
63715;BME280;49858;48.956;9.076;2023-02-20T03:59:41;99858.09;;;6.45;100.00
63715;BME280;49858;48.956;9.076;2023-02-20T04:02:16;99862.25;;;6.24;100.00
63715;BME280;49858;48.956;9.076;2023-02-20T04:04:48;99857.44;;;6.34;100.00
63715;BME280;49858;48.956;9.076;2023-02-20T04:07:21;99857.97;;;6.36;100.00
63715;BME280;49858;48.956;9.076;2023-02-20T04:09:54;99850.16;;;6.44;100.00
63715;BME280;49858;48.956;9.076;2023-02-20T04:12:26;99840.88;;;6.45;100.00
63715;BME280;49858;48.956;9.076;2023-02-20T04:14:57;99841.50;;;6.55;100.00
63715;BME280;49858;48.956;9.076;2023-02-20T04:17:28;99839.16;;;6.62;100.00
63715;BME280;49858;48.956;9.076;2023-02-20T04:19:58;99835.94;;;6.74;100.00
63715;BME280;49858;48.956;9.076;2023-02-20T04:22:31;99836.06;;;6.97;100.00
63715;BME280;49858;48.956;9.076;2023-02-20T04:25:08;99832.41;;;6.87;100.00
63715;BME280;49858;48.956;9.076;2023-02-20T04:27:40;99827.72;;;7.15;100.00
63715;BME280;49858;48.956;9.076;2023-02-20T04:30:09;99833.38;;;7.19;100.00
63715;BME280;49858;48.956;9.076;2023-02-20T04:32:38;99824.09;;;6.93;100.00
63715;BME280;49858;48.956;9.076;2023-02-20T04:35:08;99830.97;;;6.76;100.00
63715;BME280;49858;48.956;9.076;2023-02-20T04:37:42;99826.63;;;6.75;100.00
63715;BME280;49858;48.956;9.076;2023-02-20T04:40:13;99839.88;;;6.96;100.00
63715;BME280;49858;48.956;9.076;2023-02-20T04:42:42;99844.75;;;6.99;100.00
63715;BME280;49858;48.956;9.076;2023-02-20T04:45:10;99845.00;;;7.38;100.00
63715;BME280;49858;48.956;9.076;2023-02-20T04:47:38;99846.06;;;8.01;100.00
63715;BME280;49858;48.956;9.076;2023-02-20T04:50:06;99840.72;;;7.60;100.00
63715;BME280;49858;48.956;9.076;2023-02-20T04:52:35;99852.56;;;7.69;100.00
63715;BME280;49858;48.956;9.076;2023-02-20T04:55:04;99844.72;;;8.21;100.00
63715;BME280;49858;48.956;9.076;2023-02-20T04:57:35;99834.78;;;8.87;100.00
63715;BME280;49858;48.956;9.076;2023-02-20T05:00:03;99832.59;;;9.07;100.00
63715;BME280;49858;48.956;9.076;2023-02-20T05:02:31;99830.97;;;9.06;100.00
63715;BME280;49858;48.956;9.076;2023-02-20T05:04:59;99830.72;;;9.33;100.00
63715;BME280;49858;48.956;9.076;2023-02-20T05:07:27;99819.53;;;9.21;100.00
63715;BME280;49858;48.956;9.076;2023-02-20T05:09:55;99821.16;;;9.31;100.00
63715;BME280;49858;48.956;9.076;2023-02-20T05:12:22;99823.59;;;9.41;100.00
63715;BME280;49858;48.956;9.076;2023-02-20T05:14:52;99826.25;;;8.98;100.00
63715;BME280;49858;48.956;9.076;2023-02-20T05:17:21;99821.44;;;8.94;100.00
63715;BME280;49858;48.956;9.076;2023-02-20T05:19:49;99822.97;;;8.78;100.00
63715;BME280;49858;48.956;9.076;2023-02-20T05:22:16;99831.97;;;7.94;100.00
63715;BME280;49858;48.956;9.076;2023-02-20T05:24:49;99826.31;;;6.90;100.00
63715;BME280;49858;48.956;9.076;2023-02-20T05:27:19;99836.44;;;7.17;100.00
63715;BME280;49858;48.956;9.076;2023-02-20T05:29:49;99843.78;;;7.45;100.00
63715;BME280;49858;48.956;9.076;2023-02-20T05:32:19;99834.09;;;7.25;100.00
63715;BME280;49858;48.956;9.076;2023-02-20T05:34:48;99841.59;;;7.19;100.00
63715;BME280;49858;48.956;9.076;2023-02-20T05:37:18;99840.56;;;7.15;100.00
63715;BME280;49858;48.956;9.076;2023-02-20T05:39:46;99850.53;;;7.25;100.00
63715;BME280;49858;48.956;9.076;2023-02-20T05:42:15;99854.06;;;7.75;100.00
63715;BME280;49858;48.956;9.076;2023-02-20T05:44:43;99847.84;;;8.06;100.00
63715;BME280;49858;48.956;9.076;2023-02-20T05:47:11;99843.53;;;8.58;100.00
63715;BME280;49858;48.956;9.076;2023-02-20T05:49:40;99829.59;;;8.77;100.00
63715;BME280;49858;48.956;9.076;2023-02-20T05:52:10;99830.09;;;8.26;100.00
63715;BME280;49858;48.956;9.076;2023-02-20T05:54:39;99834.94;;;7.84;100.00
63715;BME280;49858;48.956;9.076;2023-02-20T05:57:10;99830.22;;;8.20;100.00
63715;BME280;49858;48.956;9.076;2023-02-20T05:59:38;99829.59;;;8.77;100.00
63715;BME280;49858;48.956;9.076;2023-02-20T06:02:06;99825.31;;;7.86;100.00
63715;BME280;49858;48.956;9.076;2023-02-20T06:04:34;99832.97;;;7.62;100.00
63715;BME280;49858;48.956;9.076;2023-02-20T06:07:03;99839.59;;;7.11;100.00
63715;BME280;49858;48.956;9.076;2023-02-20T06:09:31;99839.75;;;8.01;100.00
63715;BME280;49858;48.956;9.076;2023-02-20T06:11:59;99833.50;;;7.00;100.00
63715;BME280;49858;48.956;9.076;2023-02-20T06:14:27;99830.47;;;6.74;100.00
63715;BME280;49858;48.956;9.076;2023-02-20T06:16:55;99833.81;;;6.85;100.00
63715;BME280;49858;48.956;9.076;2023-02-20T06:19:24;99842.31;;;7.61;100.00
63715;BME280;49858;48.956;9.076;2023-02-20T06:21:53;99835.78;;;7.48;100.00
63715;BME280;49858;48.956;9.076;2023-02-20T06:24:25;99831.75;;;7.32;100.00
63715;BME280;49858;48.956;9.076;2023-02-20T06:26:53;99838.31;;;7.45;100.00
63715;BME280;49858;48.956;9.076;2023-02-20T06:29:21;99844.22;;;7.74;100.00
63715;BME280;49858;48.956;9.076;2023-02-20T06:31:48;99837.72;;;6.37;100.00
63715;BME280;49858;48.956;9.076;2023-02-20T06:34:16;99837.56;;;6.89;100.00
63715;BME280;49858;48.956;9.076;2023-02-20T06:36:44;99845.78;;;7.03;100.00
63715;BME280;49858;48.956;9.076;2023-02-20T06:39:13;99842.22;;;7.16;100.00
63715;BME280;49858;48.956;9.076;2023-02-20T06:41:42;99838.88;;;6.91;100.00
63715;BME280;49858;48.956;9.076;2023-02-20T06:44:10;99852.38;;;7.02;100.00
63715;BME280;49858;48.956;9.076;2023-02-20T06:46:38;99852.13;;;7.39;100.00
63715;BME280;49858;48.956;9.076;2023-02-20T06:49:06;99851.97;;;6.34;100.00
63715;BME280;49858;48.956;9.076;2023-02-20T06:51:34;99857.38;;;6.21;100.00
63715;BME280;49858;48.956;9.076;2023-02-20T06:54:03;99861.84;;;6.17;100.00
63715;BME280;49858;48.956;9.076;2023-02-20T06:56:32;99860.59;;;5.90;100.00
63715;BME280;49858;48.956;9.076;2023-02-20T06:59:03;99866.44;;;6.02;100.00
63715;BME280;49858;48.956;9.076;2023-02-20T07:01:37;99858.00;;;6.91;100.00
63715;BME280;49858;48.956;9.076;2023-02-20T07:04:07;99853.22;;;6.56;100.00
63715;BME280;49858;48.956;9.076;2023-02-20T07:06:36;99866.06;;;6.42;100.00
63715;BME280;49858;48.956;9.076;2023-02-20T07:09:04;99870.66;;;5.95;100.00
63715;BME280;49858;48.956;9.076;2023-02-20T07:11:32;99877.56;;;5.87;100.00
63715;BME280;49858;48.956;9.076;2023-02-20T07:14:01;99871.28;;;5.86;100.00
63715;BME280;49858;48.956;9.076;2023-02-20T07:16:29;99867.25;;;6.96;100.00
63715;BME280;49858;48.956;9.076;2023-02-20T07:18:57;99858.16;;;7.64;100.00
63715;BME280;49858;48.956;9.076;2023-02-20T07:21:26;99849.22;;;7.94;100.00
63715;BME280;49858;48.956;9.076;2023-02-20T07:23:54;99863.59;;;7.78;100.00
63715;BME280;49858;48.956;9.076;2023-02-20T07:26:27;99867.91;;;8.15;100.00
63715;BME280;49858;48.956;9.076;2023-02-20T07:28:56;99868.84;;;8.86;100.00
63715;BME280;49858;48.956;9.076;2023-02-20T07:31:27;99851.09;;;8.92;100.00
63715;BME280;49858;48.956;9.076;2023-02-20T07:33:56;99858.19;;;8.93;100.00
63715;BME280;49858;48.956;9.076;2023-02-20T07:36:24;99878.06;;;8.14;100.00
63715;BME280;49858;48.956;9.076;2023-02-20T07:38:52;99875.25;;;9.13;100.00
63715;BME280;49858;48.956;9.076;2023-02-20T07:41:21;99878.56;;;9.50;100.00
63715;BME280;49858;48.956;9.076;2023-02-20T07:43:49;99862.44;;;9.83;100.00
63715;BME280;49858;48.956;9.076;2023-02-20T07:46:17;99858.81;;;9.30;100.00
63715;BME280;49858;48.956;9.076;2023-02-20T07:48:47;99853.03;;;9.49;100.00
63715;BME280;49858;48.956;9.076;2023-02-20T07:51:15;99850.94;;;8.35;100.00
63715;BME280;49858;48.956;9.076;2023-02-20T07:53:46;99856.69;;;9.18;100.00
63715;BME280;49858;48.956;9.076;2023-02-20T07:56:15;99860.09;;;8.76;100.00
63715;BME280;49858;48.956;9.076;2023-02-20T07:58:43;99859.47;;;9.36;100.00
63715;BME280;49858;48.956;9.076;2023-02-20T08:01:10;99861.50;;;9.04;100.00
63715;BME280;49858;48.956;9.076;2023-02-20T08:03:39;99863.66;;;8.54;100.00
63715;BME280;49858;48.956;9.076;2023-02-20T08:06:08;99862.94;;;7.81;100.00
63715;BME280;49858;48.956;9.076;2023-02-20T08:08:36;99853.50;;;8.85;100.00
63715;BME280;49858;48.956;9.076;2023-02-20T08:11:05;99847.53;;;8.07;100.00
63715;BME280;49858;48.956;9.076;2023-02-20T08:13:36;99844.66;;;8.12;100.00
63715;BME280;49858;48.956;9.076;2023-02-20T08:16:04;99850.34;;;8.16;100.00
63715;BME280;49858;48.956;9.076;2023-02-20T08:18:32;99855.94;;;7.88;100.00
63715;BME280;49858;48.956;9.076;2023-02-20T08:21:00;99862.41;;;7.92;100.00
63715;BME280;49858;48.956;9.076;2023-02-20T08:23:29;99856.63;;;7.72;100.00
63715;BME280;49858;48.956;9.076;2023-02-20T08:25:57;99858.53;;;7.71;100.00
63715;BME280;49858;48.956;9.076;2023-02-20T08:28:26;99866.56;;;7.90;100.00
63715;BME280;49858;48.956;9.076;2023-02-20T08:30:54;99860.78;;;8.59;100.00
63715;BME280;49858;48.956;9.076;2023-02-20T08:33:21;99847.72;;;8.33;100.00
63715;BME280;49858;48.956;9.076;2023-02-20T08:35:49;99850.72;;;9.25;100.00
63715;BME280;49858;48.956;9.076;2023-02-20T08:38:25;99851.75;;;10.16;100.00
63715;BME280;49858;48.956;9.076;2023-02-20T08:40:55;99846.41;;;10.37;100.00
63715;BME280;49858;48.956;9.076;2023-02-20T08:43:23;99834.47;;;9.46;100.00
63715;BME280;49858;48.956;9.076;2023-02-20T08:45:53;99842.19;;;9.44;100.00
63715;BME280;49858;48.956;9.076;2023-02-20T08:48:21;99834.59;;;11.21;100.00
63715;BME280;49858;48.956;9.076;2023-02-20T08:50:50;99825.22;;;10.20;100.00
63715;BME280;49858;48.956;9.076;2023-02-20T08:53:19;99831.84;;;9.32;100.00
63715;BME280;49858;48.956;9.076;2023-02-20T08:55:46;99829.91;;;8.84;100.00
63715;BME280;49858;48.956;9.076;2023-02-20T08:58:19;99826.97;;;10.51;100.00
63715;BME280;49858;48.956;9.076;2023-02-20T09:00:47;99817.91;;;12.56;100.00
63715;BME280;49858;48.956;9.076;2023-02-20T09:03:16;99828.97;;;9.55;100.00
63715;BME280;49858;48.956;9.076;2023-02-20T09:05:44;99836.97;;;9.16;100.00
63715;BME280;49858;48.956;9.076;2023-02-20T09:08:12;99825.56;;;9.32;100.00
63715;BME280;49858;48.956;9.076;2023-02-20T09:10:40;99818.47;;;9.91;100.00
63715;BME280;49858;48.956;9.076;2023-02-20T09:13:08;99819.44;;;9.87;100.00
63715;BME280;49858;48.956;9.076;2023-02-20T09:15:37;99816.06;;;9.55;100.00
63715;BME280;49858;48.956;9.076;2023-02-20T09:18:06;99820.41;;;9.56;100.00
63715;BME280;49858;48.956;9.076;2023-02-20T09:20:35;99818.16;;;9.67;100.00
63715;BME280;49858;48.956;9.076;2023-02-20T09:23:04;99820.38;;;10.26;100.00
63715;BME280;49858;48.956;9.076;2023-02-20T09:25:33;99808.38;;;10.47;100.00
63715;BME280;49858;48.956;9.076;2023-02-20T09:28:01;99808.09;;;9.97;100.00
63715;BME280;49858;48.956;9.076;2023-02-20T09:30:29;99807.56;;;10.47;100.00
63715;BME280;49858;48.956;9.076;2023-02-20T09:32:58;99802.78;;;10.73;100.00
63715;BME280;49858;48.956;9.076;2023-02-20T09:35:28;99793.56;;;10.05;100.00
63715;BME280;49858;48.956;9.076;2023-02-20T09:37:56;99787.94;;;9.93;100.00
63715;BME280;49858;48.956;9.076;2023-02-20T09:40:26;99785.72;;;10.42;100.00
63715;BME280;49858;48.956;9.076;2023-02-20T09:43:13;99792.44;;;9.89;100.00
63715;BME280;49858;48.956;9.076;2023-02-20T09:45:48;99793.22;;;10.07;100.00
63715;BME280;49858;48.956;9.076;2023-02-20T09:48:31;99780.94;;;10.13;100.00
63715;BME280;49858;48.956;9.076;2023-02-20T09:51:04;99773.66;;;10.17;100.00
63715;BME280;49858;48.956;9.076;2023-02-20T09:53:37;99781.66;;;10.48;100.00
63715;BME280;49858;48.956;9.076;2023-02-20T09:56:12;99781.56;;;10.27;100.00
63715;BME280;49858;48.956;9.076;2023-02-20T09:58:45;99768.28;;;10.20;100.00
63715;BME280;49858;48.956;9.076;2023-02-20T10:01:18;99765.38;;;10.26;100.00
63715;BME280;49858;48.956;9.076;2023-02-20T10:03:53;99764.38;;;10.77;100.00
63715;BME280;49858;48.956;9.076;2023-02-20T10:06:25;99769.09;;;11.06;100.00
63715;BME280;49858;48.956;9.076;2023-02-20T10:08:55;99756.13;;;11.07;100.00
63715;BME280;49858;48.956;9.076;2023-02-20T10:11:35;99762.91;;;11.09;100.00
63715;BME280;49858;48.956;9.076;2023-02-20T10:14:18;99756.19;;;10.98;100.00
63715;BME280;49858;48.956;9.076;2023-02-20T10:16:54;99758.38;;;11.34;100.00
63715;BME280;49858;48.956;9.076;2023-02-20T10:19:35;99756.75;;;11.12;100.00
63715;BME280;49858;48.956;9.076;2023-02-20T10:22:12;99740.28;;;11.99;100.00
63715;BME280;49858;48.956;9.076;2023-02-20T10:24:48;99741.28;;;11.83;100.00
63715;BME280;49858;48.956;9.076;2023-02-20T10:27:26;99745.72;;;11.33;100.00
63715;BME280;49858;48.956;9.076;2023-02-20T10:29:57;99747.75;;;11.87;100.00
63715;BME280;49858;48.956;9.076;2023-02-20T10:32:29;99747.78;;;12.81;100.00
63715;BME280;49858;48.956;9.076;2023-02-20T10:37:57;99736.59;;;12.41;100.00
63715;BME280;49858;48.956;9.076;2023-02-20T10:40:32;99756.13;;;11.69;100.00
63715;BME280;49858;48.956;9.076;2023-02-20T10:43:04;99742.72;;;11.80;100.00
63715;BME280;49858;48.956;9.076;2023-02-20T10:45:44;99737.34;;;12.05;100.00
63715;BME280;49858;48.956;9.076;2023-02-20T10:48:13;99757.16;;;11.86;100.00
63715;BME280;49858;48.956;9.076;2023-02-20T10:50:47;99738.72;;;11.77;100.00
63715;BME280;49858;48.956;9.076;2023-02-20T10:53:23;99743.44;;;11.77;100.00
63715;BME280;49858;48.956;9.076;2023-02-20T10:55:59;99728.78;;;12.31;100.00
63715;BME280;49858;48.956;9.076;2023-02-20T10:58:32;99723.44;;;13.36;100.00
63715;BME280;49858;48.956;9.076;2023-02-20T11:01:06;99726.66;;;13.38;100.00
63715;BME280;49858;48.956;9.076;2023-02-20T11:03:42;99714.84;;;13.25;100.00
63715;BME280;49858;48.956;9.076;2023-02-20T11:06:16;99721.44;;;12.71;100.00
63715;BME280;49858;48.956;9.076;2023-02-20T11:08:45;99713.50;;;12.70;100.00
63715;BME280;49858;48.956;9.076;2023-02-20T11:11:21;99706.34;;;12.93;100.00
63715;BME280;49858;48.956;9.076;2023-02-20T11:13:50;99712.22;;;13.04;100.00
63715;BME280;49858;48.956;9.076;2023-02-20T11:16:25;99710.44;;;13.64;100.00
63715;BME280;49858;48.956;9.076;2023-02-20T11:19:05;99713.00;;;13.04;100.00
63715;BME280;49858;48.956;9.076;2023-02-20T11:21:41;99698.09;;;13.46;100.00
63715;BME280;49858;48.956;9.076;2023-02-20T11:24:29;99693.09;;;13.23;100.00
63715;BME280;49858;48.956;9.076;2023-02-20T11:27:04;99690.19;;;13.08;100.00
63715;BME280;49858;48.956;9.076;2023-02-20T11:29:36;99685.22;;;13.66;100.00
63715;BME280;49858;48.956;9.076;2023-02-20T11:32:29;99678.59;;;13.98;100.00
63715;BME280;49858;48.956;9.076;2023-02-20T11:35:21;99673.25;;;14.21;100.00
63715;BME280;49858;48.956;9.076;2023-02-20T11:41:09;99675.88;;;13.86;100.00
63715;BME280;49858;48.956;9.076;2023-02-20T11:43:41;99658.84;;;14.47;100.00
63715;BME280;49858;48.956;9.076;2023-02-20T11:46:26;99662.06;;;14.02;100.00
63715;BME280;49858;48.956;9.076;2023-02-20T11:48:59;99652.72;;;13.63;100.00
63715;BME280;49858;48.956;9.076;2023-02-20T11:51:34;99643.53;;;13.59;100.00
63715;BME280;49858;48.956;9.076;2023-02-20T11:54:12;99640.94;;;14.10;100.00
63715;BME280;49858;48.956;9.076;2023-02-20T11:56:57;99646.78;;;13.92;100.00
63715;BME280;49858;48.956;9.076;2023-02-20T11:59:38;99638.16;;;14.41;100.00
63715;BME280;49858;48.956;9.076;2023-02-20T12:02:23;99629.69;;;14.50;100.00
63715;BME280;49858;48.956;9.076;2023-02-20T12:05:18;99626.88;;;14.34;100.00
63715;BME280;49858;48.956;9.076;2023-02-20T12:07:55;99626.97;;;14.69;100.00
63715;BME280;49858;48.956;9.076;2023-02-20T12:10:37;99615.13;;;13.90;100.00
63715;BME280;49858;48.956;9.076;2023-02-20T12:13:12;99615.31;;;14.13;100.00
63715;BME280;49858;48.956;9.076;2023-02-20T12:15:41;99603.22;;;13.58;100.00
63715;BME280;49858;48.956;9.076;2023-02-20T12:18:35;99604.78;;;13.71;100.00
63715;BME280;49858;48.956;9.076;2023-02-20T12:21:19;99601.38;;;14.76;100.00
63715;BME280;49858;48.956;9.076;2023-02-20T12:24:01;99599.34;;;13.90;100.00
63715;BME280;49858;48.956;9.076;2023-02-20T12:26:41;99602.94;;;13.47;100.00
63715;BME280;49858;48.956;9.076;2023-02-20T12:29:23;99601.41;;;13.34;100.00
63715;BME280;49858;48.956;9.076;2023-02-20T12:32:02;99587.56;;;13.93;100.00
63715;BME280;49858;48.956;9.076;2023-02-20T12:34:43;99578.13;;;14.61;90.64
63715;BME280;49858;48.956;9.076;2023-02-20T12:37:23;99573.53;;;14.02;98.25
63715;BME280;49858;48.956;9.076;2023-02-20T12:40:02;99563.03;;;14.43;95.65
63715;BME280;49858;48.956;9.076;2023-02-20T12:42:42;99562.94;;;14.04;97.32
63715;BME280;49858;48.956;9.076;2023-02-20T12:45:27;99564.81;;;13.84;94.47
63715;BME280;49858;48.956;9.076;2023-02-20T12:48:11;99560.44;;;13.83;95.35
63715;BME280;49858;48.956;9.076;2023-02-20T12:50:58;99560.41;;;14.30;96.60
63715;BME280;49858;48.956;9.076;2023-02-20T12:53:44;99553.28;;;14.14;89.38
63715;BME280;49858;48.956;9.076;2023-02-20T12:56:23;99549.59;;;14.25;92.69
63715;BME280;49858;48.956;9.076;2023-02-20T12:58:58;99548.91;;;14.64;87.25
63715;BME280;49858;48.956;9.076;2023-02-20T13:01:33;99537.19;;;14.70;86.28
63715;BME280;49858;48.956;9.076;2023-02-20T13:04:16;99548.91;;;14.13;92.38
63715;BME280;49858;48.956;9.076;2023-02-20T13:06:52;99532.88;;;14.02;89.15
63715;BME280;49858;48.956;9.076;2023-02-20T13:09:25;99526.25;;;13.91;86.42
63715;BME280;49858;48.956;9.076;2023-02-20T13:11:58;99515.91;;;14.04;89.44
63715;BME280;49858;48.956;9.076;2023-02-20T13:14:39;99510.06;;;14.44;88.73
63715;BME280;49858;48.956;9.076;2023-02-20T13:17:20;99502.38;;;15.77;82.06
63715;BME280;49858;48.956;9.076;2023-02-20T13:19:56;99493.31;;;14.92;85.13
63715;BME280;49858;48.956;9.076;2023-02-20T13:22:24;99495.81;;;15.43;82.42
63715;BME280;49858;48.956;9.076;2023-02-20T13:24:52;99494.06;;;15.12;85.57
63715;BME280;49858;48.956;9.076;2023-02-20T13:27:28;99477.31;;;15.04;84.63
63715;BME280;49858;48.956;9.076;2023-02-20T13:29:59;99471.84;;;16.03;78.97
63715;BME280;49858;48.956;9.076;2023-02-20T13:32:30;99465.38;;;16.19;76.42
63715;BME280;49858;48.956;9.076;2023-02-20T13:35:31;99463.09;;;15.29;77.17